sensor_id;sensor_type;location;lat;lon;timestamp;P1;durP1;ratioP1;P2;durP2;ratioP2
16401;SDS011;8310;44.626;11.176;2022-12-18T00:01:13;6.43;;;5.82;;
16401;SDS011;8310;44.626;11.176;2022-12-18T00:03:43;7.05;;;5.72;;
16401;SDS011;8310;44.626;11.176;2022-12-18T00:06:11;7.03;;;6.32;;
16401;SDS011;8310;44.626;11.176;2022-12-18T00:08:41;7.13;;;6.43;;
16401;SDS011;8310;44.626;11.176;2022-12-18T00:11:10;6.18;;;5.68;;
16401;SDS011;8310;44.626;11.176;2022-12-18T00:13:39;6.45;;;5.75;;
16401;SDS011;8310;44.626;11.176;2022-12-18T00:16:07;6.72;;;6.15;;
16401;SDS011;8310;44.626;11.176;2022-12-18T00:18:45;6.43;;;5.82;;
16401;SDS011;8310;44.626;11.176;2022-12-18T00:21:13;7.32;;;6.63;;
16401;SDS011;8310;44.626;11.176;2022-12-18T00:23:43;6.78;;;6.22;;
16401;SDS011;8310;44.626;11.176;2022-12-18T00:26:12;6.65;;;6.05;;
16401;SDS011;8310;44.626;11.176;2022-12-18T00:28:41;7.28;;;6.45;;
16401;SDS011;8310;44.626;11.176;2022-12-18T00:31:10;7.53;;;6.82;;
16401;SDS011;8310;44.626;11.176;2022-12-18T00:33:38;7.50;;;6.90;;
16401;SDS011;8310;44.626;11.176;2022-12-18T00:36:06;7.90;;;7.20;;
16401;SDS011;8310;44.626;11.176;2022-12-18T00:38:36;7.95;;;7.07;;
16401;SDS011;8310;44.626;11.176;2022-12-18T00:41:07;8.77;;;7.22;;
16401;SDS011;8310;44.626;11.176;2022-12-18T00:43:36;7.35;;;6.72;;
16401;SDS011;8310;44.626;11.176;2022-12-18T00:46:03;8.18;;;7.38;;
16401;SDS011;8310;44.626;11.176;2022-12-18T00:48:32;7.65;;;6.88;;
16401;SDS011;8310;44.626;11.176;2022-12-18T00:51:04;8.30;;;7.50;;
16401;SDS011;8310;44.626;11.176;2022-12-18T00:53:33;8.20;;;7.50;;
16401;SDS011;8310;44.626;11.176;2022-12-18T00:56:01;8.00;;;7.20;;
16401;SDS011;8310;44.626;11.176;2022-12-18T00:58:30;7.75;;;6.95;;
16401;SDS011;8310;44.626;11.176;2022-12-18T01:00:59;7.72;;;7.05;;
16401;SDS011;8310;44.626;11.176;2022-12-18T01:03:26;7.15;;;6.45;;
16401;SDS011;8310;44.626;11.176;2022-12-18T01:05:53;7.63;;;7.00;;
16401;SDS011;8310;44.626;11.176;2022-12-18T01:08:21;7.60;;;6.80;;
16401;SDS011;8310;44.626;11.176;2022-12-18T01:10:49;8.18;;;7.10;;
16401;SDS011;8310;44.626;11.176;2022-12-18T01:13:17;8.50;;;7.68;;
16401;SDS011;8310;44.626;11.176;2022-12-18T01:15:49;8.18;;;7.35;;
16401;SDS011;8310;44.626;11.176;2022-12-18T01:18:17;8.15;;;7.35;;
16401;SDS011;8310;44.626;11.176;2022-12-18T01:20:45;7.45;;;6.75;;
16401;SDS011;8310;44.626;11.176;2022-12-18T01:23:13;8.65;;;7.20;;
16401;SDS011;8310;44.626;11.176;2022-12-18T01:25:41;7.45;;;6.85;;
16401;SDS011;8310;44.626;11.176;2022-12-18T01:28:09;7.75;;;6.95;;
16401;SDS011;8310;44.626;11.176;2022-12-18T01:30:37;7.22;;;6.53;;
16401;SDS011;8310;44.626;11.176;2022-12-18T01:33:06;8.38;;;7.57;;
16401;SDS011;8310;44.626;11.176;2022-12-18T01:35:39;7.78;;;7.00;;
16401;SDS011;8310;44.626;11.176;2022-12-18T01:38:09;8.27;;;7.47;;
16401;SDS011;8310;44.626;11.176;2022-12-18T01:40:37;7.20;;;6.60;;
16401;SDS011;8310;44.626;11.176;2022-12-18T01:43:04;8.20;;;7.32;;
16401;SDS011;8310;44.626;11.176;2022-12-18T01:45:31;8.10;;;7.30;;
16401;SDS011;8310;44.626;11.176;2022-12-18T01:48:03;7.82;;;7.13;;
16401;SDS011;8310;44.626;11.176;2022-12-18T01:50:36;8.38;;;7.70;;
16401;SDS011;8310;44.626;11.176;2022-12-18T01:53:07;8.68;;;7.80;;
16401;SDS011;8310;44.626;11.176;2022-12-18T01:55:38;8.27;;;7.35;;
16401;SDS011;8310;44.626;11.176;2022-12-18T01:58:12;7.88;;;7.18;;
16401;SDS011;8310;44.626;11.176;2022-12-18T02:00:41;8.32;;;7.53;;
16401;SDS011;8310;44.626;11.176;2022-12-18T02:03:10;7.57;;;6.88;;
16401;SDS011;8310;44.626;11.176;2022-12-18T02:05:40;7.82;;;7.03;;
16401;SDS011;8310;44.626;11.176;2022-12-18T02:08:14;9.05;;;7.60;;
16401;SDS011;8310;44.626;11.176;2022-12-18T02:10:47;7.97;;;7.28;;
16401;SDS011;8310;44.626;11.176;2022-12-18T02:13:24;9.25;;;8.30;;
16401;SDS011;8310;44.626;11.176;2022-12-18T02:15:58;8.70;;;7.80;;
16401;SDS011;8310;44.626;11.176;2022-12-18T02:18:34;8.52;;;7.70;;
16401;SDS011;8310;44.626;11.176;2022-12-18T02:21:07;8.60;;;7.70;;
16401;SDS011;8310;44.626;11.176;2022-12-18T02:23:44;8.23;;;7.43;;
16401;SDS011;8310;44.626;11.176;2022-12-18T02:26:19;8.20;;;7.40;;
16401;SDS011;8310;44.626;11.176;2022-12-18T02:28:53;7.93;;;7.07;;
16401;SDS011;8310;44.626;11.176;2022-12-18T02:31:27;9.95;;;7.90;;
16401;SDS011;8310;44.626;11.176;2022-12-18T02:33:59;9.23;;;8.20;;
16401;SDS011;8310;44.626;11.176;2022-12-18T02:36:29;9.38;;;8.10;;
16401;SDS011;8310;44.626;11.176;2022-12-18T02:38:58;10.02;;;8.85;;
16401;SDS011;8310;44.626;11.176;2022-12-18T02:41:29;9.02;;;7.88;;
16401;SDS011;8310;44.626;11.176;2022-12-18T02:44:00;9.05;;;8.18;;
16401;SDS011;8310;44.626;11.176;2022-12-18T02:46:33;11.00;;;8.43;;
16401;SDS011;8310;44.626;11.176;2022-12-18T02:49:06;8.60;;;7.28;;
16401;SDS011;8310;44.626;11.176;2022-12-18T02:51:42;7.80;;;7.10;;
16401;SDS011;8310;44.626;11.176;2022-12-18T02:54:20;8.57;;;7.80;;
16401;SDS011;8310;44.626;11.176;2022-12-18T02:56:56;7.70;;;7.00;;
16401;SDS011;8310;44.626;11.176;2022-12-18T02:59:30;7.18;;;6.57;;
16401;SDS011;8310;44.626;11.176;2022-12-18T03:02:09;7.55;;;6.85;;
16401;SDS011;8310;44.626;11.176;2022-12-18T03:04:47;7.57;;;6.90;;
16401;SDS011;8310;44.626;11.176;2022-12-18T03:07:18;8.27;;;7.47;;
16401;SDS011;8310;44.626;11.176;2022-12-18T03:09:50;8.85;;;7.90;;
16401;SDS011;8310;44.626;11.176;2022-12-18T03:12:22;8.45;;;7.75;;
16401;SDS011;8310;44.626;11.176;2022-12-18T03:14:56;8.23;;;7.45;;
16401;SDS011;8310;44.626;11.176;2022-12-18T03:17:30;9.32;;;8.43;;
16401;SDS011;8310;44.626;11.176;2022-12-18T03:20:03;9.40;;;8.15;;
16401;SDS011;8310;44.626;11.176;2022-12-18T03:22:33;9.00;;;7.80;;
16401;SDS011;8310;44.626;11.176;2022-12-18T03:25:03;9.55;;;8.05;;
16401;SDS011;8310;44.626;11.176;2022-12-18T03:27:35;8.65;;;7.90;;
16401;SDS011;8310;44.626;11.176;2022-12-18T03:30:07;8.23;;;7.53;;
16401;SDS011;8310;44.626;11.176;2022-12-18T03:32:39;8.52;;;7.72;;
16401;SDS011;8310;44.626;11.176;2022-12-18T03:35:10;8.88;;;8.05;;
16401;SDS011;8310;44.626;11.176;2022-12-18T03:37:39;9.30;;;8.40;;
16401;SDS011;8310;44.626;11.176;2022-12-18T03:40:07;8.75;;;7.95;;
16401;SDS011;8310;44.626;11.176;2022-12-18T03:42:39;9.80;;;8.88;;
16401;SDS011;8310;44.626;11.176;2022-12-18T03:45:13;9.18;;;8.25;;
16401;SDS011;8310;44.626;11.176;2022-12-18T03:47:49;9.00;;;8.10;;
16401;SDS011;8310;44.626;11.176;2022-12-18T03:50:27;8.90;;;8.07;;
16401;SDS011;8310;44.626;11.176;2022-12-18T03:53:08;9.90;;;9.00;;
16401;SDS011;8310;44.626;11.176;2022-12-18T03:55:44;9.23;;;8.32;;
16401;SDS011;8310;44.626;11.176;2022-12-18T03:58:15;8.85;;;8.13;;
16401;SDS011;8310;44.626;11.176;2022-12-18T04:00:46;8.88;;;7.97;;
16401;SDS011;8310;44.626;11.176;2022-12-18T04:03:16;9.20;;;8.30;;
16401;SDS011;8310;44.626;11.176;2022-12-18T04:05:45;9.02;;;8.23;;
16401;SDS011;8310;44.626;11.176;2022-12-18T04:08:15;8.57;;;7.80;;
16401;SDS011;8310;44.626;11.176;2022-12-18T04:10:43;8.88;;;7.97;;
16401;SDS011;8310;44.626;11.176;2022-12-18T04:13:11;8.77;;;7.97;;
16401;SDS011;8310;44.626;11.176;2022-12-18T04:15:41;8.40;;;7.55;;
16401;SDS011;8310;44.626;11.176;2022-12-18T04:18:09;9.60;;;8.65;;
16401;SDS011;8310;44.626;11.176;2022-12-18T04:20:41;9.02;;;8.23;;
16401;SDS011;8310;44.626;11.176;2022-12-18T04:23:08;11.50;;;9.82;;
16401;SDS011;8310;44.626;11.176;2022-12-18T04:25:36;8.75;;;7.93;;
16401;SDS011;8310;44.626;11.176;2022-12-18T04:28:04;8.68;;;7.72;;
16401;SDS011;8310;44.626;11.176;2022-12-18T04:30:32;8.32;;;7.53;;
16401;SDS011;8310;44.626;11.176;2022-12-18T04:33:05;9.52;;;8.30;;
16401;SDS011;8310;44.626;11.176;2022-12-18T04:35:35;8.60;;;7.80;;
16401;SDS011;8310;44.626;11.176;2022-12-18T04:38:02;9.05;;;8.23;;
16401;SDS011;8310;44.626;11.176;2022-12-18T04:40:30;8.63;;;7.82;;
16401;SDS011;8310;44.626;11.176;2022-12-18T04:42:58;9.23;;;8.43;;
16401;SDS011;8310;44.626;11.176;2022-12-18T04:45:25;9.15;;;8.20;;
16401;SDS011;8310;44.626;11.176;2022-12-18T04:47:53;8.73;;;7.93;;
16401;SDS011;8310;44.626;11.176;2022-12-18T04:50:22;9.20;;;8.30;;
16401;SDS011;8310;44.626;11.176;2022-12-18T04:52:50;8.65;;;7.93;;
16401;SDS011;8310;44.626;11.176;2022-12-18T04:55:19;9.05;;;8.15;;
16401;SDS011;8310;44.626;11.176;2022-12-18T04:57:46;9.48;;;8.57;;
16401;SDS011;8310;44.626;11.176;2022-12-18T05:00:14;8.23;;;7.50;;
16401;SDS011;8310;44.626;11.176;2022-12-18T05:02:43;9.02;;;8.13;;
16401;SDS011;8310;44.626;11.176;2022-12-18T05:05:10;8.63;;;7.82;;
16401;SDS011;8310;44.626;11.176;2022-12-18T05:07:39;8.27;;;7.57;;
16401;SDS011;8310;44.626;11.176;2022-12-18T05:10:07;8.70;;;7.95;;
16401;SDS011;8310;44.626;11.176;2022-12-18T05:12:35;9.35;;;8.45;;
16401;SDS011;8310;44.626;11.176;2022-12-18T05:15:23;9.00;;;8.10;;
16401;SDS011;8310;44.626;11.176;2022-12-18T05:17:51;8.55;;;7.75;;
16401;SDS011;8310;44.626;11.176;2022-12-18T05:20:18;8.88;;;8.07;;
16401;SDS011;8310;44.626;11.176;2022-12-18T05:22:48;9.95;;;9.00;;
16401;SDS011;8310;44.626;11.176;2022-12-18T05:25:16;10.30;;;8.55;;
16401;SDS011;8310;44.626;11.176;2022-12-18T05:27:43;9.27;;;8.43;;
16401;SDS011;8310;44.626;11.176;2022-12-18T05:30:11;9.13;;;8.43;;
16401;SDS011;8310;44.626;11.176;2022-12-18T05:32:40;12.85;;;8.80;;
16401;SDS011;8310;44.626;11.176;2022-12-18T05:35:08;9.63;;;8.68;;
16401;SDS011;8310;44.626;11.176;2022-12-18T05:37:37;10.00;;;9.05;;
16401;SDS011;8310;44.626;11.176;2022-12-18T05:40:07;8.63;;;7.82;;
16401;SDS011;8310;44.626;11.176;2022-12-18T05:42:35;9.35;;;8.55;;
16401;SDS011;8310;44.626;11.176;2022-12-18T05:45:04;9.45;;;8.55;;
16401;SDS011;8310;44.626;11.176;2022-12-18T05:47:33;9.70;;;8.80;;
16401;SDS011;8310;44.626;11.176;2022-12-18T05:50:00;9.27;;;8.45;;
16401;SDS011;8310;44.626;11.176;2022-12-18T05:52:28;9.50;;;8.65;;
16401;SDS011;8310;44.626;11.176;2022-12-18T05:54:57;9.77;;;8.88;;
16401;SDS011;8310;44.626;11.176;2022-12-18T05:57:26;8.40;;;7.60;;
16401;SDS011;8310;44.626;11.176;2022-12-18T05:59:54;10.02;;;9.05;;
16401;SDS011;8310;44.626;11.176;2022-12-18T06:02:22;9.88;;;8.88;;
16401;SDS011;8310;44.626;11.176;2022-12-18T06:04:50;9.50;;;8.60;;
16401;SDS011;8310;44.626;11.176;2022-12-18T06:07:18;9.40;;;8.50;;
16401;SDS011;8310;44.626;11.176;2022-12-18T06:09:46;9.60;;;8.73;;
16401;SDS011;8310;44.626;11.176;2022-12-18T06:12:14;9.23;;;8.35;;
16401;SDS011;8310;44.626;11.176;2022-12-18T06:14:43;9.75;;;8.82;;
16401;SDS011;8310;44.626;11.176;2022-12-18T06:17:11;10.07;;;9.18;;
16401;SDS011;8310;44.626;11.176;2022-12-18T06:19:38;9.45;;;8.43;;
16401;SDS011;8310;44.626;11.176;2022-12-18T06:22:09;9.10;;;8.23;;
16401;SDS011;8310;44.626;11.176;2022-12-18T06:24:37;10.23;;;9.23;;
16401;SDS011;8310;44.626;11.176;2022-12-18T06:27:05;10.02;;;9.02;;
16401;SDS011;8310;44.626;11.176;2022-12-18T06:29:32;10.27;;;9.25;;
16401;SDS011;8310;44.626;11.176;2022-12-18T06:32:02;9.90;;;9.00;;
16401;SDS011;8310;44.626;11.176;2022-12-18T06:34:31;11.05;;;9.13;;
16401;SDS011;8310;44.626;11.176;2022-12-18T06:36:58;9.35;;;8.55;;
16401;SDS011;8310;44.626;11.176;2022-12-18T06:39:27;8.73;;;7.93;;
16401;SDS011;8310;44.626;11.176;2022-12-18T06:41:55;9.95;;;8.93;;
16401;SDS011;8310;44.626;11.176;2022-12-18T06:44:23;8.43;;;7.63;;
16401;SDS011;8310;44.626;11.176;2022-12-18T06:46:51;9.80;;;8.63;;
16401;SDS011;8310;44.626;11.176;2022-12-18T06:49:21;9.05;;;8.20;;
16401;SDS011;8310;44.626;11.176;2022-12-18T06:51:48;9.68;;;8.68;;
16401;SDS011;8310;44.626;11.176;2022-12-18T06:54:16;10.10;;;9.10;;
16401;SDS011;8310;44.626;11.176;2022-12-18T06:56:44;10.25;;;9.15;;
16401;SDS011;8310;44.626;11.176;2022-12-18T06:59:12;10.00;;;9.07;;
16401;SDS011;8310;44.626;11.176;2022-12-18T07:01:40;9.70;;;8.80;;
16401;SDS011;8310;44.626;11.176;2022-12-18T07:04:08;10.15;;;9.20;;
16401;SDS011;8310;44.626;11.176;2022-12-18T07:06:37;9.93;;;8.90;;
16401;SDS011;8310;44.626;11.176;2022-12-18T07:09:05;9.73;;;8.73;;
16401;SDS011;8310;44.626;11.176;2022-12-18T07:11:33;10.98;;;9.82;;
16401;SDS011;8310;44.626;11.176;2022-12-18T07:14:04;9.30;;;8.50;;
16401;SDS011;8310;44.626;11.176;2022-12-18T07:16:32;9.20;;;8.30;;
16401;SDS011;8310;44.626;11.176;2022-12-18T07:19:00;10.07;;;9.05;;
16401;SDS011;8310;44.626;11.176;2022-12-18T07:21:28;11.25;;;10.00;;
16401;SDS011;8310;44.626;11.176;2022-12-18T07:23:57;10.95;;;9.77;;
16401;SDS011;8310;44.626;11.176;2022-12-18T07:26:24;12.50;;;9.43;;
16401;SDS011;8310;44.626;11.176;2022-12-18T07:28:54;10.57;;;9.23;;
16401;SDS011;8310;44.626;11.176;2022-12-18T07:31:23;11.85;;;9.40;;
16401;SDS011;8310;44.626;11.176;2022-12-18T07:33:52;12.15;;;9.07;;
16401;SDS011;8310;44.626;11.176;2022-12-18T07:36:19;11.13;;;9.57;;
16401;SDS011;8310;44.626;11.176;2022-12-18T07:38:47;11.80;;;9.18;;
16401;SDS011;8310;44.626;11.176;2022-12-18T07:41:19;9.85;;;8.75;;
16401;SDS011;8310;44.626;11.176;2022-12-18T07:43:47;10.68;;;8.38;;
16401;SDS011;8310;44.626;11.176;2022-12-18T07:46:16;9.57;;;8.57;;
16401;SDS011;8310;44.626;11.176;2022-12-18T07:48:44;8.48;;;7.75;;
16401;SDS011;8310;44.626;11.176;2022-12-18T07:51:12;9.85;;;8.85;;
16401;SDS011;8310;44.626;11.176;2022-12-18T07:53:40;10.43;;;9.43;;
16401;SDS011;8310;44.626;11.176;2022-12-18T07:56:09;9.38;;;8.57;;
16401;SDS011;8310;44.626;11.176;2022-12-18T07:58:40;10.60;;;9.15;;
16401;SDS011;8310;44.626;11.176;2022-12-18T08:01:09;9.20;;;8.27;;
16401;SDS011;8310;44.626;11.176;2022-12-18T08:03:38;9.68;;;8.50;;
16401;SDS011;8310;44.626;11.176;2022-12-18T08:06:08;9.93;;;8.88;;
16401;SDS011;8310;44.626;11.176;2022-12-18T08:08:36;8.98;;;8.07;;
16401;SDS011;8310;44.626;11.176;2022-12-18T08:11:05;9.77;;;8.85;;
16401;SDS011;8310;44.626;11.176;2022-12-18T08:13:32;11.25;;;8.45;;
16401;SDS011;8310;44.626;11.176;2022-12-18T08:18:37;9.25;;;8.35;;
16401;SDS011;8310;44.626;11.176;2022-12-18T08:21:08;8.75;;;7.93;;
16401;SDS011;8310;44.626;11.176;2022-12-18T08:23:36;9.52;;;8.35;;
16401;SDS011;8310;44.626;11.176;2022-12-18T08:26:04;9.68;;;8.70;;
16401;SDS011;8310;44.626;11.176;2022-12-18T08:28:32;9.93;;;8.85;;
16401;SDS011;8310;44.626;11.176;2022-12-18T08:31:00;9.40;;;8.50;;
16401;SDS011;8310;44.626;11.176;2022-12-18T08:33:28;9.25;;;8.30;;
16401;SDS011;8310;44.626;11.176;2022-12-18T08:35:57;8.98;;;8.07;;
16401;SDS011;8310;44.626;11.176;2022-12-18T08:38:25;9.80;;;8.70;;
16401;SDS011;8310;44.626;11.176;2022-12-18T08:40:57;9.05;;;8.13;;
16401;SDS011;8310;44.626;11.176;2022-12-18T08:43:26;10.30;;;9.25;;
16401;SDS011;8310;44.626;11.176;2022-12-18T08:46:10;11.40;;;8.82;;
16401;SDS011;8310;44.626;11.176;2022-12-18T08:48:38;9.07;;;8.15;;
16401;SDS011;8310;44.626;11.176;2022-12-18T08:51:11;9.27;;;8.38;;
16401;SDS011;8310;44.626;11.176;2022-12-18T08:53:39;9.63;;;8.63;;
16401;SDS011;8310;44.626;11.176;2022-12-18T08:56:07;9.68;;;8.68;;
16401;SDS011;8310;44.626;11.176;2022-12-18T08:58:34;9.65;;;8.18;;
16401;SDS011;8310;44.626;11.176;2022-12-18T09:01:02;9.80;;;8.82;;
16401;SDS011;8310;44.626;11.176;2022-12-18T09:03:31;9.80;;;8.02;;
16401;SDS011;8310;44.626;11.176;2022-12-18T09:06:00;10.73;;;9.23;;
16401;SDS011;8310;44.626;11.176;2022-12-18T09:08:29;9.48;;;8.48;;
16401;SDS011;8310;44.626;11.176;2022-12-18T09:10:57;10.55;;;8.80;;
16401;SDS011;8310;44.626;11.176;2022-12-18T09:13:25;13.73;;;8.90;;
16401;SDS011;8310;44.626;11.176;2022-12-18T09:15:53;10.10;;;8.85;;
16401;SDS011;8310;44.626;11.176;2022-12-18T09:18:22;8.82;;;7.93;;
16401;SDS011;8310;44.626;11.176;2022-12-18T09:20:50;9.50;;;7.95;;
16401;SDS011;8310;44.626;11.176;2022-12-18T09:23:18;10.05;;;9.05;;
16401;SDS011;8310;44.626;11.176;2022-12-18T09:25:47;9.20;;;7.95;;
16401;SDS011;8310;44.626;11.176;2022-12-18T09:28:16;8.65;;;7.85;;
16401;SDS011;8310;44.626;11.176;2022-12-18T09:30:46;8.48;;;7.65;;
16401;SDS011;8310;44.626;11.176;2022-12-18T09:33:15;8.18;;;7.38;;
16401;SDS011;8310;44.626;11.176;2022-12-18T09:35:43;8.90;;;8.00;;
16401;SDS011;8310;44.626;11.176;2022-12-18T09:38:13;8.55;;;7.72;;
16401;SDS011;8310;44.626;11.176;2022-12-18T09:40:43;8.38;;;7.57;;
16401;SDS011;8310;44.626;11.176;2022-12-18T09:43:16;9.15;;;7.88;;
16401;SDS011;8310;44.626;11.176;2022-12-18T09:45:46;8.20;;;7.40;;
16401;SDS011;8310;44.626;11.176;2022-12-18T09:48:19;9.43;;;8.45;;
16401;SDS011;8310;44.626;11.176;2022-12-18T09:50:52;9.07;;;7.90;;
16401;SDS011;8310;44.626;11.176;2022-12-18T09:53:26;8.32;;;7.53;;
16401;SDS011;8310;44.626;11.176;2022-12-18T09:55:58;9.02;;;8.13;;
16401;SDS011;8310;44.626;11.176;2022-12-18T09:58:31;9.10;;;8.20;;
16401;SDS011;8310;44.626;11.176;2022-12-18T10:01:06;9.68;;;8.77;;
16401;SDS011;8310;44.626;11.176;2022-12-18T10:03:39;9.25;;;8.35;;
16401;SDS011;8310;44.626;11.176;2022-12-18T10:06:10;9.32;;;8.32;;
16401;SDS011;8310;44.626;11.176;2022-12-18T10:08:42;8.93;;;7.85;;
16401;SDS011;8310;44.626;11.176;2022-12-18T10:11:20;8.88;;;8.00;;
16401;SDS011;8310;44.626;11.176;2022-12-18T10:13:56;8.90;;;8.05;;
16401;SDS011;8310;44.626;11.176;2022-12-18T10:16:29;9.45;;;8.55;;
16401;SDS011;8310;44.626;11.176;2022-12-18T10:19:09;9.82;;;8.82;;
16401;SDS011;8310;44.626;11.176;2022-12-18T10:21:45;10.23;;;9.15;;
16401;SDS011;8310;44.626;11.176;2022-12-18T10:24:19;9.32;;;8.45;;
16401;SDS011;8310;44.626;11.176;2022-12-18T10:26:53;8.95;;;8.05;;
16401;SDS011;8310;44.626;11.176;2022-12-18T10:29:28;9.38;;;8.48;;
16401;SDS011;8310;44.626;11.176;2022-12-18T10:31:55;9.00;;;8.20;;
16401;SDS011;8310;44.626;11.176;2022-12-18T10:34:23;10.52;;;9.43;;
16401;SDS011;8310;44.626;11.176;2022-12-18T10:36:51;9.82;;;8.73;;
16401;SDS011;8310;44.626;11.176;2022-12-18T10:39:19;9.40;;;8.38;;
16401;SDS011;8310;44.626;11.176;2022-12-18T10:41:48;9.95;;;9.05;;
16401;SDS011;8310;44.626;11.176;2022-12-18T10:44:17;9.32;;;8.52;;
16401;SDS011;8310;44.626;11.176;2022-12-18T10:46:47;9.40;;;8.60;;
16401;SDS011;8310;44.626;11.176;2022-12-18T10:49:22;9.52;;;8.73;;
16401;SDS011;8310;44.626;11.176;2022-12-18T10:51:52;9.45;;;8.55;;
16401;SDS011;8310;44.626;11.176;2022-12-18T10:54:32;9.80;;;8.90;;
16401;SDS011;8310;44.626;11.176;2022-12-18T10:57:13;10.55;;;9.50;;
16401;SDS011;8310;44.626;11.176;2022-12-18T10:59:49;9.85;;;8.95;;
16401;SDS011;8310;44.626;11.176;2022-12-18T11:02:26;9.48;;;8.55;;
16401;SDS011;8310;44.626;11.176;2022-12-18T11:04:57;10.80;;;9.23;;
16401;SDS011;8310;44.626;11.176;2022-12-18T11:07:25;8.63;;;7.82;;
16401;SDS011;8310;44.626;11.176;2022-12-18T11:10:15;9.73;;;8.82;;
16401;SDS011;8310;44.626;11.176;2022-12-18T11:12:44;9.50;;;8.75;;
16401;SDS011;8310;44.626;11.176;2022-12-18T11:15:16;10.73;;;9.73;;
16401;SDS011;8310;44.626;11.176;2022-12-18T11:17:48;10.25;;;9.25;;
16401;SDS011;8310;44.626;11.176;2022-12-18T11:20:21;9.25;;;8.32;;
16401;SDS011;8310;44.626;11.176;2022-12-18T11:22:58;10.40;;;9.38;;
16401;SDS011;8310;44.626;11.176;2022-12-18T11:25:28;10.35;;;9.23;;
16401;SDS011;8310;44.626;11.176;2022-12-18T11:27:56;10.07;;;9.07;;
16401;SDS011;8310;44.626;11.176;2022-12-18T11:30:27;9.95;;;9.05;;
16401;SDS011;8310;44.626;11.176;2022-12-18T11:32:59;10.45;;;9.52;;
16401;SDS011;8310;44.626;11.176;2022-12-18T11:35:34;11.23;;;10.13;;
16401;SDS011;8310;44.626;11.176;2022-12-18T11:38:20;10.95;;;9.88;;
16401;SDS011;8310;44.626;11.176;2022-12-18T11:40:52;11.20;;;9.30;;
16401;SDS011;8310;44.626;11.176;2022-12-18T11:43:25;9.93;;;9.00;;
16401;SDS011;8310;44.626;11.176;2022-12-18T11:45:56;9.88;;;8.95;;
16401;SDS011;8310;44.626;11.176;2022-12-18T11:48:30;10.18;;;9.18;;
16401;SDS011;8310;44.626;11.176;2022-12-18T11:51:01;11.30;;;10.15;;
16401;SDS011;8310;44.626;11.176;2022-12-18T11:53:32;10.95;;;9.85;;
16401;SDS011;8310;44.626;11.176;2022-12-18T11:56:05;11.18;;;10.18;;
16401;SDS011;8310;44.626;11.176;2022-12-18T11:58:59;10.13;;;9.23;;
16401;SDS011;8310;44.626;11.176;2022-12-18T12:01:37;11.02;;;10.05;;
16401;SDS011;8310;44.626;11.176;2022-12-18T12:04:26;9.75;;;8.85;;
16401;SDS011;8310;44.626;11.176;2022-12-18T12:07:07;10.43;;;9.40;;
16401;SDS011;8310;44.626;11.176;2022-12-18T12:09:46;11.25;;;10.13;;
16401;SDS011;8310;44.626;11.176;2022-12-18T12:12:24;12.13;;;10.27;;
16401;SDS011;8310;44.626;11.176;2022-12-18T12:15:13;11.18;;;10.07;;
16401;SDS011;8310;44.626;11.176;2022-12-18T12:17:49;11.20;;;10.10;;
16401;SDS011;8310;44.626;11.176;2022-12-18T12:20:24;11.00;;;9.90;;
16401;SDS011;8310;44.626;11.176;2022-12-18T12:23:00;11.20;;;10.10;;
16401;SDS011;8310;44.626;11.176;2022-12-18T12:25:36;11.13;;;10.13;;
16401;SDS011;8310;44.626;11.176;2022-12-18T12:28:12;11.80;;;10.60;;
16401;SDS011;8310;44.626;11.176;2022-12-18T12:30:50;10.93;;;9.93;;
16401;SDS011;8310;44.626;11.176;2022-12-18T12:33:30;10.85;;;9.80;;
16401;SDS011;8310;44.626;11.176;2022-12-18T12:36:09;10.88;;;9.77;;
16401;SDS011;8310;44.626;11.176;2022-12-18T12:38:45;11.48;;;10.38;;
16401;SDS011;8310;44.626;11.176;2022-12-18T12:41:16;11.77;;;10.68;;
16401;SDS011;8310;44.626;11.176;2022-12-18T12:44:05;12.10;;;11.10;;
16401;SDS011;8310;44.626;11.176;2022-12-18T12:46:35;11.88;;;10.70;;
16401;SDS011;8310;44.626;11.176;2022-12-18T12:49:08;11.88;;;10.75;;
16401;SDS011;8310;44.626;11.176;2022-12-18T12:51:43;11.68;;;10.45;;
16401;SDS011;8310;44.626;11.176;2022-12-18T12:54:15;11.38;;;10.38;;
16401;SDS011;8310;44.626;11.176;2022-12-18T12:56:47;11.23;;;10.07;;
16401;SDS011;8310;44.626;11.176;2022-12-18T12:59:22;12.43;;;11.13;;
16401;SDS011;8310;44.626;11.176;2022-12-18T13:02:05;12.43;;;11.30;;
16401;SDS011;8310;44.626;11.176;2022-12-18T13:04:42;12.48;;;11.38;;
16401;SDS011;8310;44.626;11.176;2022-12-18T13:07:19;11.75;;;10.68;;
16401;SDS011;8310;44.626;11.176;2022-12-18T13:10:12;12.27;;;11.15;;
16401;SDS011;8310;44.626;11.176;2022-12-18T13:12:54;12.50;;;11.27;;
16401;SDS011;8310;44.626;11.176;2022-12-18T13:15:22;11.98;;;10.82;;
16401;SDS011;8310;44.626;11.176;2022-12-18T13:20:46;11.55;;;10.52;;
16401;SDS011;8310;44.626;11.176;2022-12-18T13:23:25;10.95;;;9.82;;
16401;SDS011;8310;44.626;11.176;2022-12-18T13:28:59;11.93;;;10.93;;
16401;SDS011;8310;44.626;11.176;2022-12-18T13:34:26;11.82;;;10.82;;
16401;SDS011;8310;44.626;11.176;2022-12-18T13:36:56;12.43;;;11.32;;
16401;SDS011;8310;44.626;11.176;2022-12-18T13:40:05;11.32;;;10.35;;
16401;SDS011;8310;44.626;11.176;2022-12-18T13:43:14;11.48;;;10.48;;
16401;SDS011;8310;44.626;11.176;2022-12-18T13:45:58;11.85;;;10.75;;
16401;SDS011;8310;44.626;11.176;2022-12-18T13:48:31;10.68;;;9.70;;
16401;SDS011;8310;44.626;11.176;2022-12-18T13:51:02;10.48;;;9.57;;
16401;SDS011;8310;44.626;11.176;2022-12-18T13:53:34;12.00;;;10.70;;
16401;SDS011;8310;44.626;11.176;2022-12-18T13:56:06;11.25;;;10.30;;
16401;SDS011;8310;44.626;11.176;2022-12-18T13:58:34;11.10;;;10.05;;
16401;SDS011;8310;44.626;11.176;2022-12-18T14:01:02;11.75;;;10.68;;
16401;SDS011;8310;44.626;11.176;2022-12-18T14:03:30;11.25;;;10.25;;
16401;SDS011;8310;44.626;11.176;2022-12-18T14:05:59;11.20;;;10.23;;
16401;SDS011;8310;44.626;11.176;2022-12-18T14:08:34;11.65;;;10.65;;
16401;SDS011;8310;44.626;11.176;2022-12-18T14:11:07;12.00;;;11.00;;
16401;SDS011;8310;44.626;11.176;2022-12-18T14:13:47;12.70;;;11.55;;
16401;SDS011;8310;44.626;11.176;2022-12-18T14:16:15;12.10;;;11.02;;
16401;SDS011;8310;44.626;11.176;2022-12-18T14:18:45;12.18;;;11.13;;
16401;SDS011;8310;44.626;11.176;2022-12-18T14:21:21;13.38;;;12.07;;
16401;SDS011;8310;44.626;11.176;2022-12-18T14:24:02;12.70;;;11.48;;
16401;SDS011;8310;44.626;11.176;2022-12-18T14:26:33;12.80;;;11.50;;
16401;SDS011;8310;44.626;11.176;2022-12-18T14:29:11;13.20;;;12.00;;
16401;SDS011;8310;44.626;11.176;2022-12-18T14:31:46;12.95;;;11.85;;
16401;SDS011;8310;44.626;11.176;2022-12-18T14:34:31;13.30;;;12.13;;
16401;SDS011;8310;44.626;11.176;2022-12-18T14:36:58;13.82;;;12.40;;
16401;SDS011;8310;44.626;11.176;2022-12-18T14:39:26;13.32;;;12.10;;
16401;SDS011;8310;44.626;11.176;2022-12-18T14:41:56;13.48;;;12.35;;
16401;SDS011;8310;44.626;11.176;2022-12-18T14:44:23;13.10;;;11.80;;
16401;SDS011;8310;44.626;11.176;2022-12-18T14:46:55;13.32;;;12.15;;
16401;SDS011;8310;44.626;11.176;2022-12-18T14:49:24;14.43;;;13.02;;
16401;SDS011;8310;44.626;11.176;2022-12-18T14:51:57;13.98;;;12.63;;
16401;SDS011;8310;44.626;11.176;2022-12-18T14:54:28;13.63;;;12.30;;
16401;SDS011;8310;44.626;11.176;2022-12-18T14:56:59;13.45;;;12.02;;
16401;SDS011;8310;44.626;11.176;2022-12-18T14:59:28;14.45;;;12.95;;
16401;SDS011;8310;44.626;11.176;2022-12-18T15:01:58;13.88;;;12.55;;
16401;SDS011;8310;44.626;11.176;2022-12-18T15:04:28;13.63;;;12.32;;
16401;SDS011;8310;44.626;11.176;2022-12-18T15:07:04;14.25;;;12.73;;
16401;SDS011;8310;44.626;11.176;2022-12-18T15:09:37;14.48;;;13.07;;
16401;SDS011;8310;44.626;11.176;2022-12-18T15:12:15;14.23;;;12.73;;
16401;SDS011;8310;44.626;11.176;2022-12-18T15:14:51;13.77;;;12.38;;
16401;SDS011;8310;44.626;11.176;2022-12-18T15:17:20;13.95;;;12.65;;